Time;durP1;ratioP1;P1;durP2;ratioP2;P2;SDS_P1;SDS_P2;PMS_P1;PMS_P2;Temp;Humidity;BMP_temperature;BMP_pressure;BME280_temperature;BME280_humidity;BME280_pressure;Samples;Min_cycle;Max_cycle;Signal;HPM_P1;HPM_P2
2023/07/23 00:00:30;;;;;;;0.80;0.80;;;;;;;27.65;72.30;97377.25;5083955;28;20071;-82
2023/07/23 00:03:17;;;;;;;0.80;0.80;;;;;;;28.00;71.87;97368.44;5079742;28;20081;-84
2023/07/23 00:06:02;;;;;;;1.48;0.77;;;;;;;28.06;71.42;97369.72;5084832;28;20043;-83
2023/07/23 00:08:46;;;;;;;2.08;1.02;;;;;;;28.11;71.09;97359.81;5081483;28;20047;-83
2023/07/23 00:11:30;;;;;;;0.70;0.70;;;;;;;28.05;71.20;97361.97;5079182;28;20179;-83
2023/07/23 00:14:15;;;;;;;0.98;0.85;;;;;;;27.98;71.47;97357.22;5084053;28;20046;-83
2023/07/23 00:16:59;;;;;;;0.80;0.70;;;;;;;28.14;70.96;97349.06;5080431;28;20035;-81
2023/07/23 00:19:43;;;;;;;1.27;0.70;;;;;;;28.07;71.29;97343.53;5080856;28;20086;-82
2023/07/23 00:22:27;;;;;;;1.48;0.80;;;;;;;28.10;70.92;97353.63;5082347;28;20081;-82
2023/07/23 00:25:11;;;;;;;0.70;0.70;;;;;;;28.06;70.63;97345.44;5085827;28;20048;-83
2023/07/23 00:27:55;;;;;;;1.30;0.90;;;;;;;28.07;71.11;97338.91;5082200;28;20031;-85
2023/07/23 00:30:39;;;;;;;1.95;0.80;;;;;;;28.30;70.83;97334.78;5075910;28;20085;-84
2023/07/23 00:33:23;;;;;;;0.95;0.77;;;;;;;28.25;70.38;97337.75;5082039;28;20085;-82
2023/07/23 00:36:07;;;;;;;1.25;0.80;;;;;;;28.19;70.77;97337.25;5078021;28;20508;-84
2023/07/23 00:38:51;;;;;;;2.75;1.08;;;;;;;27.94;71.05;97329.41;5079671;28;20105;-84
2023/07/23 00:41:35;;;;;;;1.20;0.90;;;;;;;27.91;71.45;97322.78;5079682;28;20070;-83
2023/07/23 00:44:19;;;;;;;0.85;0.85;;;;;;;27.65;71.84;97324.16;5082636;28;20099;-84
2023/07/23 00:47:03;;;;;;;1.00;1.00;;;;;;;27.66;71.96;97327.59;5085571;28;20082;-83
2023/07/23 00:49:48;;;;;;;2.80;0.80;;;;;;;27.76;72.07;97323.59;5081147;28;20055;-84
2023/07/23 00:52:32;;;;;;;1.17;0.70;;;;;;;27.69;71.76;97318.06;5082802;28;20087;-83
2023/07/23 00:55:17;;;;;;;0.60;0.60;;;;;;;27.63;71.77;97315.63;5086305;28;22010;-84
2023/07/23 00:58:01;;;;;;;0.70;0.70;;;;;;;27.76;71.79;97305.53;5080306;28;20093;-85
2023/07/23 01:00:45;;;;;;;0.90;0.90;;;;;;;27.75;71.88;97306.66;5082855;28;20115;-84
2023/07/23 01:03:29;;;;;;;0.95;0.90;;;;;;;28.00;71.34;97295.63;5082735;28;20047;-81
2023/07/23 01:06:13;;;;;;;2.53;0.90;;;;;;;27.77;71.58;97293.59;5077001;28;20047;-81
2023/07/23 01:08:58;;;;;;;0.80;0.80;;;;;;;27.59;72.37;97292.44;5084887;28;20561;-80
2023/07/23 01:11:42;;;;;;;1.90;0.80;;;;;;;27.91;71.37;97287.72;5083538;28;20127;-80
2023/07/23 01:14:26;;;;;;;2.10;0.85;;;;;;;27.71;71.58;97281.53;5080953;28;20042;-81
2023/07/23 01:17:12;;;;;;;1.98;0.70;;;;;;;28.02;71.09;97276.41;5082365;28;20055;-82
2023/07/23 01:20:05;;;;;;;1.30;1.08;;;;;;;28.30;70.49;97275.44;5078844;28;20444;-82
2023/07/23 01:22:49;;;;;;;1.58;0.70;;;;;;;28.00;71.06;97276.75;5083917;28;20457;-81
2023/07/23 01:25:33;;;;;;;1.20;0.80;;;;;;;28.11;70.83;97273.50;5079634;28;20109;-81
2023/07/23 01:28:17;;;;;;;2.60;0.85;;;;;;;28.02;70.99;97277.16;5079001;28;20063;-80
2023/07/23 01:31:01;;;;;;;0.77;0.77;;;;;;;27.85;71.47;97272.19;5080240;28;20102;-80
2023/07/23 01:33:46;;;;;;;0.70;0.70;;;;;;;27.92;71.28;97272.34;5079632;28;20123;-81
2023/07/23 01:36:30;;;;;;;0.60;0.60;;;;;;;27.91;71.35;97270.78;5078886;28;20089;-81
2023/07/23 01:39:14;;;;;;;0.80;0.80;;;;;;;28.27;70.45;97266.13;5086846;28;20073;-82
2023/07/23 01:41:58;;;;;;;0.80;0.80;;;;;;;28.20;70.65;97263.28;5085398;28;20047;-82
2023/07/23 01:44:42;;;;;;;0.63;0.63;;;;;;;28.29;70.27;97255.75;5080404;28;20038;-82
2023/07/23 01:47:26;;;;;;;2.03;0.68;;;;;;;28.26;70.36;97253.78;5077840;28;20086;-82
2023/07/23 01:50:10;;;;;;;0.70;0.70;;;;;;;28.19;70.57;97256.34;5076994;28;20410;-82
2023/07/23 01:52:54;;;;;;;1.35;0.80;;;;;;;27.96;71.09;97259.72;5082129;28;20531;-81
2023/07/23 01:55:38;;;;;;;0.60;0.60;;;;;;;28.31;70.30;97256.19;5084054;28;20410;-82
2023/07/23 01:58:22;;;;;;;1.05;0.60;;;;;;;28.12;70.60;97254.25;5088347;28;20039;-82
2023/07/23 02:01:06;;;;;;;0.60;0.60;;;;;;;28.16;70.22;97248.97;5079989;28;20042;-82
2023/07/23 02:03:50;;;;;;;0.60;0.60;;;;;;;27.79;70.97;97248.19;5079248;28;20055;-82
2023/07/23 02:06:36;;;;;;;3.72;0.73;;;;;;;27.71;71.27;97251.91;5082849;28;20039;-82
2023/07/23 02:09:20;;;;;;;0.50;0.50;;;;;;;27.45;71.72;97250.50;5082770;28;20093;-82
2023/07/23 02:12:04;;;;;;;0.85;0.50;;;;;;;27.28;72.47;97246.28;5082178;28;20043;-80
2023/07/23 02:14:49;;;;;;;0.40;0.40;;;;;;;27.25;72.76;97251.59;5079587;28;20105;-80
2023/07/23 02:17:33;;;;;;;0.43;0.43;;;;;;;27.32;72.58;97244.47;5081429;28;20039;-81
2023/07/23 02:20:17;;;;;;;0.50;0.50;;;;;;;27.19;72.58;97254.56;5079787;28;20501;-81
2023/07/23 02:23:01;;;;;;;0.50;0.50;;;;;;;27.26;72.57;97247.75;5079147;28;20566;-81
2023/07/23 02:25:48;;;;;;;0.60;0.60;;;;;;;27.30;72.34;97243.22;5080194;28;20051;-81
2023/07/23 02:28:32;;;;;;;0.50;0.50;;;;;;;27.72;71.91;97239.97;5076226;28;20085;-81
2023/07/23 02:31:16;;;;;;;0.50;0.50;;;;;;;28.01;71.04;97229.75;5083736;28;20050;-81
2023/07/23 02:34:00;;;;;;;0.50;0.50;;;;;;;27.93;70.80;97228.06;5079207;28;20062;-80
2023/07/23 02:36:47;;;;;;;1.70;0.70;;;;;;;27.70;71.04;97231.44;5077984;28;20101;-81
2023/07/23 02:39:31;;;;;;;0.60;0.60;;;;;;;27.92;70.71;97229.22;5083730;28;20043;-82
2023/07/23 02:42:15;;;;;;;0.80;0.80;;;;;;;27.57;71.22;97232.72;5079460;28;20397;-81
2023/07/23 02:45:00;;;;;;;0.60;0.60;;;;;;;27.46;71.76;97225.13;5079251;28;20036;-82
2023/07/23 02:47:43;;;;;;;0.80;0.80;;;;;;;27.22;72.25;97229.63;5083361;28;20032;-82
2023/07/23 02:50:28;;;;;;;0.70;0.70;;;;;;;27.37;71.59;97224.56;5078631;28;20063;-81
2023/07/23 02:53:11;;;;;;;0.85;0.85;;;;;;;27.87;70.58;97221.38;5079530;28;20130;-82
2023/07/23 02:55:55;;;;;;;0.95;0.93;;;;;;;27.58;70.81;97226.19;5079402;28;20039;-82
2023/07/23 02:58:39;;;;;;;0.95;0.95;;;;;;;27.32;71.51;97219.44;5080859;28;20097;-82
2023/07/23 03:01:23;;;;;;;1.38;0.88;;;;;;;27.43;71.60;97222.38;5075996;28;20460;-82
2023/07/23 03:04:07;;;;;;;1.10;1.10;;;;;;;27.33;71.92;97226.41;5082232;28;20086;-84
2023/07/23 03:06:52;;;;;;;4.03;1.35;;;;;;;27.61;71.17;97220.09;5075944;28;20083;-81
2023/07/23 03:09:36;;;;;;;2.53;1.23;;;;;;;27.34;71.79;97217.19;5079114;28;20098;-82
2023/07/23 03:12:20;;;;;;;1.20;1.20;;;;;;;27.73;71.07;97216.47;5080172;28;20047;-80
2023/07/23 03:15:05;;;;;;;1.20;1.00;;;;;;;27.71;71.30;97227.63;5084433;28;20505;-80
2023/07/23 03:17:51;;;;;;;1.27;1.20;;;;;;;27.60;71.29;97229.31;5076500;28;20448;-81
2023/07/23 03:20:35;;;;;;;2.08;1.17;;;;;;;27.16;72.43;97216.75;5082072;28;20046;-79
2023/07/23 03:23:19;;;;;;;1.33;1.27;;;;;;;27.28;72.41;97224.75;5085129;28;20536;-80
2023/07/23 03:26:03;;;;;;;1.50;1.20;;;;;;;27.45;72.20;97228.19;5080807;28;20473;-80
2023/07/23 03:28:47;;;;;;;1.75;1.40;;;;;;;27.43;72.27;97223.16;5078313;28;20453;-79
2023/07/23 03:31:31;;;;;;;1.60;1.50;;;;;;;27.48;71.99;97233.63;5080416;28;20039;-81
2023/07/23 03:34:15;;;;;;;1.70;1.60;;;;;;;27.73;71.57;97227.28;5076233;28;20071;-80
2023/07/23 03:36:59;;;;;;;1.80;1.70;;;;;;;28.11;70.75;97233.03;5079694;28;20559;-81
2023/07/23 03:39:42;;;;;;;1.83;1.70;;;;;;;28.07;70.57;97231.03;5081293;28;20055;-80
2023/07/23 03:42:26;;;;;;;2.47;2.00;;;;;;;28.05;70.76;97227.16;5084787;28;20106;-81
2023/07/23 03:45:10;;;;;;;3.00;2.80;;;;;;;28.03;70.76;97234.81;5082587;28;20145;-81
2023/07/23 03:47:54;;;;;;;3.70;3.40;;;;;;;27.94;70.87;97233.09;5079087;28;20111;-81
2023/07/23 03:50:38;;;;;;;3.75;3.45;;;;;;;28.15;70.82;97242.75;5074613;28;20108;-80
2023/07/23 03:53:22;;;;;;;3.70;3.40;;;;;;;27.80;71.29;97246.28;5081873;28;20069;-79
2023/07/23 03:56:06;;;;;;;4.30;3.30;;;;;;;27.75;71.70;97247.34;5081074;28;20097;-81
2023/07/23 03:58:50;;;;;;;3.65;3.35;;;;;;;27.97;71.48;97250.50;5080875;28;20508;-80
2023/07/23 04:01:34;;;;;;;5.35;3.42;;;;;;;27.74;71.73;97253.88;5081915;28;20051;-81
2023/07/23 04:04:18;;;;;;;3.38;3.08;;;;;;;27.99;71.44;97250.91;5080020;28;20051;-81
2023/07/23 04:07:03;;;;;;;3.42;2.90;;;;;;;28.25;70.78;97252.22;5038189;28;1203080;-81
2023/07/23 04:09:47;;;;;;;2.30;2.10;;;;;;;28.09;70.95;97255.72;5086693;28;20090;-82
2023/07/23 04:12:33;;;;;;;1.75;1.65;;;;;;;28.28;70.79;97251.50;5082147;28;20056;-81
2023/07/23 04:15:17;;;;;;;1.45;1.30;;;;;;;28.20;70.91;97252.50;5083117;28;20043;-82
2023/07/23 04:18:01;;;;;;;1.33;1.20;;;;;;;28.37;70.55;97251.28;5082550;28;20133;-82
2023/07/23 04:20:45;;;;;;;2.20;1.20;;;;;;;28.33;70.52;97256.63;5080363;28;20543;-81
2023/07/23 04:23:29;;;;;;;1.63;1.30;;;;;;;28.51;70.31;97265.03;5082548;28;20569;-80
2023/07/23 04:26:17;;;;;;;2.30;1.40;;;;;;;28.50;70.55;97260.00;5087242;28;20120;-80
2023/07/23 04:29:02;;;;;;;1.75;1.65;;;;;;;28.43;70.72;97259.88;5079188;28;20039;-81
2023/07/23 04:31:46;;;;;;;2.00;1.90;;;;;;;28.30;70.40;97262.72;5088210;28;20081;-81
2023/07/23 04:34:30;;;;;;;5.72;1.75;;;;;;;28.58;70.24;97261.69;5082000;28;20052;-81
2023/07/23 04:37:15;;;;;;;2.80;2.42;;;;;;;28.55;69.75;97253.53;5085905;28;20397;-80
2023/07/23 04:39:59;;;;;;;2.63;2.42;;;;;;;28.77;69.67;97265.50;5081792;28;20093;-80
2023/07/23 04:42:43;;;;;;;2.45;2.28;;;;;;;28.98;69.01;97261.63;5082180;28;20047;-81
2023/07/23 04:45:27;;;;;;;2.78;2.58;;;;;;;28.84;69.35;97262.16;5080957;28;20452;-80
2023/07/23 04:48:13;;;;;;;3.20;2.90;;;;;;;28.52;70.00;97263.13;5081558;28;20071;-79
2023/07/23 04:50:59;;;;;;;3.90;3.60;;;;;;;28.83;69.40;97272.16;5084504;28;20121;-80
2023/07/23 04:53:43;;;;;;;3.50;3.20;;;;;;;28.44;70.26;97272.22;5089042;28;20056;-81
2023/07/23 04:56:27;;;;;;;3.83;3.53;;;;;;;28.58;69.94;97275.19;5080057;28;20067;-80
2023/07/23 04:59:11;;;;;;;3.58;3.28;;;;;;;28.27;70.41;97274.22;5077640;28;20078;-80
2023/07/23 05:01:55;;;;;;;3.50;3.00;;;;;;;28.16;71.17;97271.31;5082330;28;20062;-80
2023/07/23 05:04:38;;;;;;;;;;;;;;;28.61;70.24;97269.06;5081660;28;20066;-80
2023/07/23 05:07:23;;;;;;;3.38;3.08;;;;;;;28.31;71.07;97271.59;5076619;28;19961;-80
2023/07/23 05:10:07;;;;;;;3.47;3.00;;;;;;;28.35;70.84;97273.22;5082829;28;20051;-80
2023/07/23 05:12:51;;;;;;;3.47;2.78;;;;;;;28.52;70.73;97276.63;5077573;28;20101;-81
2023/07/23 05:15:35;;;;;;;3.40;3.10;;;;;;;28.35;70.72;97284.03;5084182;28;20039;-81
2023/07/23 05:18:19;;;;;;;3.78;3.38;;;;;;;28.23;71.31;97273.38;5076563;28;20509;-82
2023/07/23 05:21:04;;;;;;;4.82;4.43;;;;;;;27.78;72.28;97278.19;5082415;28;20455;-82
2023/07/23 05:23:48;;;;;;;5.10;4.60;;;;;;;28.05;71.88;97289.94;5079389;28;20044;-82
2023/07/23 05:26:32;;;;;;;6.45;4.63;;;;;;;28.79;70.48;97279.41;5076860;28;20534;-83
2023/07/23 05:29:16;;;;;;;8.45;5.30;;;;;;;28.73;70.74;97281.63;5084869;28;20039;-83
2023/07/23 05:32:00;;;;;;;5.45;4.95;;;;;;;28.29;70.86;97284.66;5080248;28;20501;-82
2023/07/23 05:34:43;;;;;;;5.53;4.22;;;;;;;28.17;71.24;97290.97;5083910;28;20062;-81
2023/07/23 05:37:27;;;;;;;6.07;4.63;;;;;;;28.08;71.90;97281.13;5078980;28;20039;-82
2023/07/23 05:40:11;;;;;;;5.18;4.60;;;;;;;28.25;71.64;97287.28;5082548;28;20043;-81
2023/07/23 05:42:55;;;;;;;5.88;5.28;;;;;;;28.69;70.49;97285.38;5078925;28;20055;-80
2023/07/23 05:45:39;;;;;;;6.60;5.70;;;;;;;28.38;70.84;97282.50;5079793;28;20425;-82
2023/07/23 05:48:23;;;;;;;6.70;6.00;;;;;;;28.50;70.61;97285.06;5075795;28;20039;-82
2023/07/23 05:51:07;;;;;;;6.70;5.95;;;;;;;28.21;71.33;97281.84;5077044;28;20046;-82
2023/07/23 05:53:51;;;;;;;5.90;5.32;;;;;;;28.30;71.11;97280.81;5082941;28;20089;-81
2023/07/23 05:56:35;;;;;;;6.20;5.57;;;;;;;28.65;70.39;97286.09;5080709;28;20044;-81
2023/07/23 05:59:19;;;;;;;8.95;4.75;;;;;;;29.07;70.06;97291.84;5081364;28;20557;-81
2023/07/23 06:02:04;;;;;;;5.72;4.20;;;;;;;28.97;69.99;97295.16;5084483;28;20043;-80
2023/07/23 06:04:48;;;;;;;4.75;3.75;;;;;;;29.18;69.61;97290.13;5078907;28;20178;-81
2023/07/23 06:07:31;;;;;;;4.57;3.63;;;;;;;29.72;68.90;97276.66;5079003;28;20043;-81
2023/07/23 06:10:16;;;;;;;3.45;3.15;;;;;;;29.24;69.11;97282.50;5081689;28;20135;-81
2023/07/23 06:12:59;;;;;;;4.82;3.58;;;;;;;29.29;69.67;97292.97;5078801;28;20059;-82
2023/07/23 06:15:43;;;;;;;3.75;2.83;;;;;;;29.75;68.64;97294.84;5081133;28;20062;-80
2023/07/23 06:18:28;;;;;;;3.45;3.15;;;;;;;29.96;67.86;97290.88;5077809;28;20040;-81
2023/07/23 06:21:12;;;;;;;3.35;2.90;;;;;;;29.88;67.53;97289.22;5083797;28;20039;-81
2023/07/23 06:23:57;;;;;;;3.17;2.80;;;;;;;30.10;67.63;97297.63;5079130;28;20081;-81
2023/07/23 06:26:41;;;;;;;4.53;2.90;;;;;;;30.26;67.18;97306.31;5086828;28;20047;-81
2023/07/23 06:29:26;;;;;;;2.40;2.20;;;;;;;29.85;67.37;97288.03;5080478;28;20078;-81
2023/07/23 06:32:10;;;;;;;2.00;1.90;;;;;;;29.72;67.78;97292.09;5078690;28;20058;-82
2023/07/23 06:34:55;;;;;;;1.40;1.30;;;;;;;29.68;67.76;97305.56;5084649;28;20089;-81
2023/07/23 06:37:40;;;;;;;2.95;1.20;;;;;;;29.97;67.48;97305.16;5077371;28;20055;-80
2023/07/23 06:40:25;;;;;;;0.95;0.95;;;;;;;29.21;67.00;97302.91;5079806;28;20051;-80
2023/07/23 06:43:09;;;;;;;0.98;0.98;;;;;;;29.21;68.09;97300.19;5079796;28;20098;-81
2023/07/23 06:45:53;;;;;;;1.20;1.00;;;;;;;29.40;67.39;97301.25;5075701;28;20056;-81
2023/07/23 06:48:37;;;;;;;0.90;0.90;;;;;;;29.49;67.67;97309.13;5078229;28;20089;-83
2023/07/23 06:51:21;;;;;;;1.20;1.10;;;;;;;29.20;67.21;97314.84;5081891;28;20047;-84
2023/07/23 06:54:05;;;;;;;1.88;1.00;;;;;;;29.84;66.97;97318.91;5077891;28;20055;-84
2023/07/23 06:56:53;;;;;;;0.90;0.90;;;;;;;29.83;67.28;97321.97;5080751;28;20118;-84
2023/07/23 06:59:37;;;;;;;1.00;1.00;;;;;;;29.69;67.19;97341.47;5080528;28;20047;-84
2023/07/23 07:02:21;;;;;;;1.13;1.10;;;;;;;29.94;67.63;97333.72;5081731;28;20105;-83
2023/07/23 07:05:05;;;;;;;0.95;0.90;;;;;;;29.48;67.74;97338.09;5073698;28;20071;-85
2023/07/23 07:07:50;;;;;;;1.20;0.98;;;;;;;29.66;66.70;97332.16;5080801;28;20055;-85
2023/07/23 07:10:34;;;;;;;1.75;0.93;;;;;;;30.23;65.20;97334.13;5083192;28;20062;-83
2023/07/23 07:13:18;;;;;;;0.90;0.90;;;;;;;30.01;65.75;97341.94;5077824;28;20071;-83
2023/07/23 07:16:02;;;;;;;0.80;0.80;;;;;;;30.26;65.75;97346.13;5073894;28;20082;-82
2023/07/23 07:18:46;;;;;;;0.70;0.70;;;;;;;30.17;65.54;97349.13;5084000;28;20038;-84
2023/07/23 07:21:30;;;;;;;1.05;0.95;;;;;;;29.87;65.81;97353.34;5080583;28;20089;-83
2023/07/23 07:24:14;;;;;;;0.80;0.80;;;;;;;30.02;65.89;97353.56;5076745;28;20046;-79
2023/07/23 07:26:58;;;;;;;0.60;0.60;;;;;;;30.51;65.06;97338.31;5076754;28;21034;-82
2023/07/23 07:29:43;;;;;;;0.80;0.80;;;;;;;30.30;66.54;97345.03;5075259;28;20075;-81
2023/07/23 07:32:28;;;;;;;2.58;0.80;;;;;;;30.85;65.80;97351.84;5072985;28;20083;-81
2023/07/23 07:35:12;;;;;;;0.88;0.80;;;;;;;30.90;65.53;97348.81;5072230;28;20559;-79
2023/07/23 07:37:56;;;;;;;1.25;0.80;;;;;;;30.17;66.13;97357.25;5067159;28;20043;-79
2023/07/23 07:40:40;;;;;;;1.23;0.80;;;;;;;29.72;66.24;97355.06;5067427;28;20060;-79
2023/07/23 07:43:24;;;;;;;2.13;0.80;;;;;;;30.24;65.88;97362.72;5076648;28;20405;-78
2023/07/23 07:46:08;;;;;;;2.83;1.70;;;;;;;29.38;66.79;97357.59;5077348;28;20142;-77
2023/07/23 07:48:52;;;;;;;1.85;1.75;;;;;;;30.92;64.61;97362.78;5075858;28;20048;-77
2023/07/23 07:51:37;;;;;;;5.60;4.00;;;;;;;30.13;65.17;97359.13;5074180;28;20075;-77
2023/07/23 07:54:21;;;;;;;5.97;5.38;;;;;;;30.58;64.50;97364.69;5082491;28;20047;-77
2023/07/23 07:57:05;;;;;;;6.20;5.60;;;;;;;30.63;63.56;97362.44;5078528;28;20051;-78
2023/07/23 07:59:50;;;;;;;4.53;4.13;;;;;;;29.77;64.05;97368.25;5080866;28;20494;-77
2023/07/23 08:02:34;;;;;;;5.50;4.53;;;;;;;29.59;64.55;97378.81;5079570;28;20047;-78
2023/07/23 08:05:19;;;;;;;5.65;5.07;;;;;;;29.36;64.78;97370.69;5073728;28;20039;-79
2023/07/23 08:08:05;;;;;;;8.50;5.18;;;;;;;29.76;63.87;97396.44;5080274;28;20468;-79
2023/07/23 08:10:49;;;;;;;4.90;4.50;;;;;;;29.24;65.47;97379.75;5078586;28;20070;-85
2023/07/23 08:13:38;;;;;;;3.38;3.10;;;;;;;29.53;64.68;97395.69;5077768;28;20228;-85
2023/07/23 08:16:22;;;;;;;2.88;2.67;;;;;;;29.55;65.21;97398.81;5082942;28;20558;-80
2023/07/23 08:19:08;;;;;;;3.78;2.60;;;;;;;29.00;65.81;97418.69;5083382;28;20040;-78
2023/07/23 08:21:52;;;;;;;2.75;2.55;;;;;;;28.96;65.61;97404.31;5078322;28;20108;-79
2023/07/23 08:24:36;;;;;;;5.70;2.60;;;;;;;30.03;64.90;97410.00;5074847;28;20047;-78
2023/07/23 08:27:21;;;;;;;3.15;2.85;;;;;;;29.98;63.99;97409.53;5080639;28;20092;-79
2023/07/23 08:30:07;;;;;;;2.85;2.53;;;;;;;29.96;64.35;97411.78;5076680;28;20047;-80
2023/07/23 08:32:53;;;;;;;2.55;2.35;;;;;;;30.31;63.88;97422.38;5080146;28;20401;-79
2023/07/23 08:35:38;;;;;;;2.60;2.15;;;;;;;31.61;62.06;97427.69;5077409;28;20043;-77
2023/07/23 08:38:26;;;;;;;2.20;2.05;;;;;;;31.03;61.65;97430.59;5076625;28;20039;-77
2023/07/23 08:41:23;;;;;;;2.00;1.90;;;;;;;30.77;61.33;97434.97;5083500;28;20054;-78
2023/07/23 08:44:07;;;;;;;2.08;1.85;;;;;;;30.61;61.28;97440.56;5068842;28;20558;-78
2023/07/23 08:47:09;;;;;;;1.90;1.80;;;;;;;30.88;61.56;97437.81;5066777;28;20044;-78
2023/07/23 08:49:53;;;;;;;3.40;1.92;;;;;;;30.77;61.14;97442.31;5070640;28;20047;-79
2023/07/23 08:52:39;;;;;;;4.47;2.97;;;;;;;30.06;62.40;97449.06;5069673;28;20055;-77
2023/07/23 08:55:25;;;;;;;3.00;2.67;;;;;;;30.10;63.14;97447.19;5075043;28;20725;-77
2023/07/23 08:58:20;;;;;;;4.03;2.85;;;;;;;30.35;62.36;97452.19;5074487;28;20508;-77
2023/07/23 09:01:06;;;;;;;2.95;2.70;;;;;;;30.05;62.98;97453.69;5083681;28;20122;-76
2023/07/23 09:03:50;;;;;;;3.67;2.75;;;;;;;29.18;64.39;97471.13;5079888;28;20058;-77
2023/07/23 09:06:35;;;;;;;2.63;2.42;;;;;;;29.41;64.57;97464.19;5075650;28;20431;-77
2023/07/23 09:09:19;;;;;;;3.47;2.80;;;;;;;29.92;64.82;97472.03;5075191;28;20078;-77
2023/07/23 09:12:03;;;;;;;2.60;2.40;;;;;;;29.95;64.20;97472.44;5081167;28;20047;-77
2023/07/23 09:14:48;;;;;;;2.80;2.60;;;;;;;30.10;64.24;97478.91;5074461;28;20086;-77
2023/07/23 09:17:32;;;;;;;2.50;2.30;;;;;;;29.62;64.69;97474.63;5079157;28;20039;-77
2023/07/23 09:20:19;;;;;;;2.92;2.70;;;;;;;29.45;65.01;97487.44;5077845;28;20044;-77
2023/07/23 09:23:07;;;;;;;5.28;2.75;;;;;;;29.63;65.06;97492.41;5079531;28;20122;-78
2023/07/23 09:25:51;;;;;;;3.17;2.67;;;;;;;30.23;64.35;97496.47;5079693;28;20039;-78
2023/07/23 09:28:36;;;;;;;4.22;3.83;;;;;;;30.23;64.00;97495.72;5082739;28;20051;-77
2023/07/23 09:31:23;;;;;;;4.00;3.70;;;;;;;30.57;63.08;97499.28;5079987;28;20048;-77
2023/07/23 09:34:07;;;;;;;4.80;3.40;;;;;;;30.37;63.36;97500.53;5079092;28;20043;-76
2023/07/23 09:36:53;;;;;;;2.63;2.42;;;;;;;30.19;63.60;97501.06;5078764;28;20086;-76
2023/07/23 09:39:37;;;;;;;3.45;3.15;;;;;;;31.24;62.42;97507.09;5078904;28;20071;-76
2023/07/23 09:42:22;;;;;;;2.60;2.40;;;;;;;30.78;62.64;97514.28;5078617;28;20401;-77
2023/07/23 09:45:07;;;;;;;3.25;2.97;;;;;;;31.00;61.60;97512.63;5082575;28;20125;-76
2023/07/23 09:47:52;;;;;;;3.22;2.80;;;;;;;31.06;61.01;97513.09;5078013;28;22270;-77
2023/07/23 09:50:36;;;;;;;2.80;2.60;;;;;;;31.09;60.98;97520.47;5077884;28;20051;-77
2023/07/23 09:53:20;;;;;;;3.70;3.40;;;;;;;30.71;61.91;97522.31;5075017;28;20100;-76
2023/07/23 09:56:05;;;;;;;4.50;4.10;;;;;;;31.20;62.25;97534.94;5072804;28;20090;-77
2023/07/23 09:58:51;;;;;;;3.83;3.40;;;;;;;31.35;62.38;97526.97;5076535;28;20058;-78
2023/07/23 10:01:35;;;;;;;3.40;3.20;;;;;;;31.44;62.42;97526.69;5072990;28;20051;-77
2023/07/23 10:04:22;;;;;;;3.10;2.90;;;;;;;30.95;61.74;97528.41;5074066;28;20036;-77
2023/07/23 10:07:10;;;;;;;3.75;3.45;;;;;;;30.92;62.48;97529.94;5075978;28;20051;-77
2023/07/23 10:09:55;;;;;;;3.75;3.42;;;;;;;30.55;63.01;97536.78;5076652;28;20086;-77
2023/07/23 10:12:39;;;;;;;3.15;2.90;;;;;;;30.58;63.71;97537.97;5073658;28;20464;-78
2023/07/23 10:15:23;;;;;;;2.80;2.60;;;;;;;30.36;63.50;97548.47;5080538;28;20103;-77
2023/07/23 10:18:08;;;;;;;3.25;3.05;;;;;;;30.80;64.01;97541.78;5075798;28;20039;-78
2023/07/23 10:20:52;;;;;;;2.67;2.47;;;;;;;30.76;63.51;97535.53;5075894;28;20047;-77
2023/07/23 10:23:40;;;;;;;2.60;2.40;;;;;;;30.81;63.97;97537.16;5076624;28;20043;-77
2023/07/23 10:26:28;;;;;;;2.17;2.08;;;;;;;31.67;63.18;97550.94;5073615;28;20079;-77
2023/07/23 10:29:14;;;;;;;2.78;2.58;;;;;;;31.94;62.25;97545.41;5073117;28;20125;-77
2023/07/23 10:32:26;;;;;;;3.95;3.55;;;;;;;31.92;62.28;97545.75;5078428;28;20403;-78
2023/07/23 10:35:10;;;;;;;2.78;2.58;;;;;;;31.60;61.98;97542.72;5073608;28;20081;-77
2023/07/23 10:38:23;;;;;;;3.00;2.80;;;;;;;31.57;62.13;97546.97;5073512;28;20097;-78
2023/07/23 10:41:07;;;;;;;4.53;3.28;;;;;;;31.22;61.47;97550.84;5074006;28;20166;-77
2023/07/23 10:43:52;;;;;;;4.38;2.97;;;;;;;31.02;61.48;97559.09;5072922;28;20051;-77
2023/07/23 10:46:36;;;;;;;3.15;2.95;;;;;;;30.96;61.72;97555.16;5074273;28;20071;-77
2023/07/23 10:49:24;;;;;;;2.75;2.55;;;;;;;30.68;62.49;97569.84;5083570;28;20086;-77
2023/07/23 10:52:12;;;;;;;2.70;2.50;;;;;;;31.15;61.86;97566.97;5071887;28;20039;-78
2023/07/23 10:55:01;;;;;;;2.50;2.30;;;;;;;30.95;63.19;97561.69;5074710;28;20090;-77
2023/07/23 10:57:45;;;;;;;2.03;1.92;;;;;;;30.57;63.23;97566.97;5077559;28;20051;-78
2023/07/23 11:00:32;;;;;;;2.50;2.13;;;;;;;30.86;63.49;97580.97;5075388;28;20137;-78
2023/07/23 11:03:18;;;;;;;2.22;2.13;;;;;;;30.72;63.12;97572.63;5074920;28;20436;-77
2023/07/23 11:06:02;;;;;;;2.60;2.40;;;;;;;30.95;62.04;97588.03;5073625;28;20389;-77
2023/07/23 11:08:51;;;;;;;2.33;2.10;;;;;;;31.01;62.66;97570.28;5077583;28;20046;-78
2023/07/23 11:11:40;;;;;;;2.05;1.90;;;;;;;30.96;62.90;97581.47;5076605;28;20046;-78
2023/07/23 11:14:29;;;;;;;2.05;1.95;;;;;;;30.59;62.78;97589.03;5072865;28;20070;-77
2023/07/23 11:17:13;;;;;;;1.80;1.70;;;;;;;31.38;62.57;97583.16;5074658;28;20439;-78
2023/07/23 11:19:58;;;;;;;1.98;1.80;;;;;;;31.22;62.92;97590.72;5074658;28;20058;-78
2023/07/23 11:22:43;;;;;;;1.80;1.70;;;;;;;31.27;61.87;97587.69;5074643;28;20043;-78
2023/07/23 11:25:27;;;;;;;2.55;1.50;;;;;;;31.83;61.82;97586.00;5074694;28;20081;-78
2023/07/23 11:28:12;;;;;;;2.75;1.70;;;;;;;31.36;62.22;97596.31;5071793;28;20030;-77
2023/07/23 11:30:56;;;;;;;1.52;1.42;;;;;;;31.57;62.66;97595.78;5072935;28;20043;-77
2023/07/23 11:33:41;;;;;;;1.52;1.40;;;;;;;31.46;62.22;97601.09;5077158;28;20043;-78
2023/07/23 11:36:27;;;;;;;1.88;1.40;;;;;;;31.58;60.84;97607.41;5079236;28;20087;-77
2023/07/23 11:39:11;;;;;;;1.35;1.27;;;;;;;30.62;63.48;97615.41;5079146;28;20043;-78
2023/07/23 11:41:55;;;;;;;1.08;1.08;;;;;;;31.39;62.18;97609.13;5080771;28;20547;-78
2023/07/23 11:44:39;;;;;;;0.80;0.80;;;;;;;30.48;63.37;97615.94;5080146;28;20043;-77
2023/07/23 11:47:23;;;;;;;1.05;1.02;;;;;;;30.04;64.74;97613.69;5074110;28;20073;-83
2023/07/23 11:50:07;;;;;;;3.03;0.90;;;;;;;30.49;64.47;97611.34;5076199;28;20093;-79
2023/07/23 11:52:52;;;;;;;0.80;0.80;;;;;;;31.10;64.29;97611.47;5071383;28;20047;-80
2023/07/23 11:55:36;;;;;;;0.93;0.93;;;;;;;31.25;64.74;97617.06;5080988;28;20108;-80
2023/07/23 11:58:20;;;;;;;1.00;1.00;;;;;;;30.91;63.30;97615.84;5081122;28;20043;-80
2023/07/23 12:01:06;;;;;;;2.05;1.20;;;;;;;31.06;63.34;97616.81;5077223;28;20100;-79
2023/07/23 12:03:51;;;;;;;1.13;0.93;;;;;;;31.70;61.97;97615.28;5079045;28;20051;-81
2023/07/23 12:06:38;;;;;;;1.10;1.10;;;;;;;31.23;62.62;97619.38;5078841;28;20059;-81
2023/07/23 12:09:22;;;;;;;1.13;0.90;;;;;;;30.93;62.24;97618.19;5074763;28;20069;-81
2023/07/23 12:12:11;;;;;;;1.10;1.10;;;;;;;31.49;60.38;97627.47;5080581;28;20081;-82
2023/07/23 12:15:04;;;;;;;1.27;1.15;;;;;;;31.28;61.68;97619.84;5079317;28;20036;-81
2023/07/23 12:17:51;;;;;;;1.40;1.30;;;;;;;32.50;60.60;97620.72;5075037;28;20107;-81
2023/07/23 12:20:37;;;;;;;1.38;1.27;;;;;;;32.38;59.81;97619.06;5077650;28;20051;-81
2023/07/23 12:23:22;;;;;;;1.63;1.45;;;;;;;32.02;59.10;97625.72;5076167;28;20405;-80
2023/07/23 12:26:06;;;;;;;1.92;1.80;;;;;;;31.29;58.95;97634.19;5078376;28;20071;-79
2023/07/23 12:28:49;;;;;;;1.90;1.70;;;;;;;31.37;58.32;97624.97;5082130;28;20097;-79
2023/07/23 12:31:40;;;;;;;1.95;1.70;;;;;;;31.42;58.10;97640.91;5080216;28;20110;-80
2023/07/23 12:34:24;;;;;;;2.78;2.20;;;;;;;30.41;58.99;97636.72;5079278;28;20393;-79
2023/07/23 12:37:08;;;;;;;5.15;2.60;;;;;;;30.29;60.02;97634.97;5074569;28;20111;-79
2023/07/23 12:39:54;;;;;;;2.53;2.33;;;;;;;30.27;60.42;97642.66;5079857;28;20101;-78
2023/07/23 12:42:39;;;;;;;3.15;2.65;;;;;;;30.91;59.14;97634.03;5077687;28;20063;-81
2023/07/23 12:45:22;;;;;;;2.90;2.70;;;;;;;31.37;58.07;97635.81;5079540;28;20070;-83
2023/07/23 12:48:06;;;;;;;2.72;2.53;;;;;;;31.14;58.19;97642.09;5084385;28;20551;-84
2023/07/23 12:50:50;;;;;;;2.50;2.40;;;;;;;31.68;57.12;97639.28;5079822;28;20062;-85
2023/07/23 12:53:34;;;;;;;2.95;2.50;;;;;;;31.88;57.12;97641.88;5081227;28;20047;-84
2023/07/23 12:56:19;;;;;;;4.43;2.35;;;;;;;32.34;56.01;97655.13;5086271;28;20035;-85